METAR Data
IDs: Format: Raw Decoded Include TAF

Data at: 1334 UTC 14 Dec 2019

PANV 141256Z AUTO 05012KT 10SM OVC080 M08/M10 A2949 RMK AO2 SLP097 T10831100 FZRANO TSNO
PANV 141156Z AUTO 05013KT 10SM OVC100 M08/M10 A2949 RMK AO2 SLP096 60000 T10831100 11083 21106 53002 FZRANO TSNO
PANV 141056Z AUTO 05014KT 10SM OVC050 M08/M10 A2949 RMK AO2 SNE39 SLP096 P0000 T10831100 FZRANO TSNO
PANV 140956Z AUTO 05016G21KT 8SM -SN BKN040 OVC050 M09/M11 A2949 RMK AO2 SLP096 P0000 T10891106 FZRANO TSNO
PANV 140856Z AUTO 04014G20KT 10SM -SN BKN042 OVC050 M09/M11 A2949 RMK AO2 SNB56 SLP096 P0000 60000 T10891111 410831117 50004 FZRANO TSNO
PANV 140756Z AUTO 04014KT 10SM BKN041 OVC055 M09/M11 A2949 RMK AO2 SNE47 SLP099 P0000 T10941111 FZRANO TSNO
PANV 140656Z AUTO 04013G19KT 7SM -SN BKN035 OVC070 M10/M12 A2948 RMK AO2 SNB42 SLP095 P0000 T11001117 FZRANO TSNO
PANV 140608Z AUTO 04012KT 10SM SCT026 OVC070 M11/M12 A2948 RMK AO2 FZRANO TSNO
PANV 140556Z AUTO 03014KT 10SM BKN026 OVC070 M11/M12 A2947 RMK AO2 SNE35 SLP093 P0000 60000 T11061122 11100 21111 50000 FZRANO TSNO
PANV 140530Z AUTO 04011KT 9SM -SN BKN026 BKN110 M11/M12 A2949 RMK AO2 P0000 FZRANO TSNO
PANV 140456Z AUTO 04010KT 9SM -SN SCT048 BKN070 M11/M12 A2948 RMK AO2 SLP095 P0000 T11061122 FZRANO TSNO
PANV 140447Z AUTO 04012KT 9SM -SN SCT019 SCT050 BKN060 M11/M12 A2948 RMK AO2 P0000 FZRANO TSNO
PANV 140356Z AUTO 04014KT 3SM -SN BR OVC023 M11/M12 A2947 RMK AO2 SLP092 P0000 T11061122 FZRANO TSNO
PANV 140345Z AUTO 04012KT 6SM -SN BR BKN021 OVC027 M11/M12 A2947 RMK AO2 P0000 FZRANO TSNO
PANV 140256Z AUTO 04011KT 7SM -SN FEW030 OVC037 M11/M12 A2947 RMK AO2 SNB04 SLP091 P0000 60000 T11061122 53006 FZRANO TSNO
PANV 140244Z AUTO 04008KT 9SM -SN FEW028 OVC037 M11/M12 A2948 RMK AO2 SNB04 P0000 FZRANO TSNO
PANV 140213Z AUTO 04009KT 9SM -SN OVC029 M11/M13 A2947 RMK AO2 SNB04 P0000 FZRANO TSNO
PANV 140156Z AUTO 04009KT 10SM OVC032 M11/M13 A2946 RMK AO2 SLP088 T11061128 FZRANO TSNO
PANV 140151Z AUTO 03010KT 10SM SCT025 OVC034 M11/M13 A2946 RMK AO2 FZRANO TSNO
PANV 140104Z AUTO 04010KT 10SM BKN018 OVC030 M11/M13 A2945 RMK AO2 FZRANO TSNO
PANV 140056Z AUTO 03010KT 10SM SCT018 OVC030 M11/M13 A2946 RMK AO2 SLP084 T11111128 FZRANO TSNO
PANV 132356Z AUTO 04009KT 10SM FEW040 OVC070 M11/M13 A2944 RMK AO2 SLP079 T11111128 11106 21117 51019 FZRANO TSNO
PANV 132256Z AUTO 03010KT 10SM FEW044 SCT080 BKN100 M12/M13 A2942 RMK AO2 SLP072 T11171133 FZRANO TSNO
PANV 132156Z AUTO 03009KT 10SM FEW065 M12/M13 A2941 RMK AO2 SLP068 T11171133 FZRANO TSNO
PANV 132056Z AUTO 03009KT 10SM SCT050 SCT065 M12/M13 A2938 RMK AO2 SLP057 T11171133 51023 FZRANO TSNO
PANV 131956Z AUTO 03008KT 10SM BKN055 M12/M13 A2937 RMK AO2 SLP051 T11171133 FZRANO TSNO
PANV 131856Z AUTO 03007KT 10SM OVC065 M11/M13 A2934 RMK AO2 SLP038 T11061128 FZRANO TSNO
PANV 131756Z AUTO 03010KT 10SM SCT065 M11/M13 A2932 RMK AO2 SLP029 T11111128 11089 21111 53012 FZRANO TSNO
PANV 131556Z AUTO 05009KT 10SM CLR M11/M12 A2928 RMK AO2 SLP015 T11061122 FZRANO TSNO
PANV 131456Z AUTO 04008KT 10SM CLR M10/M12 A2928 RMK AO2 SLP013 T11001122 53001 FZRANO TSNO
PANV 131356Z AUTO 04009KT 10SM CLR M10/M12 A2928 RMK AO2 SLP012 T11001117 FZRANO TSNO
PANV 131256Z AUTO 04010KT 10SM BKN120 M09/M12 A2927 RMK AO2 SLP010 T10941117 FZRANO TSNO
PANV 131156Z AUTO 04006KT 10SM SCT100 M09/M11 A2928 RMK AO2 SLP009 T10891111 11078 21089 53004 FZRANO TSNO
PANV 131056Z AUTO 03009KT 10SM FEW100 M09/M11 A2927 RMK AO2 SLP008 T10891106 FZRANO TSNO
PANV 130956Z AUTO 04010KT 10SM FEW090 M08/M11 A2927 RMK AO2 SLP005 T10831106 FZRANO TSNO
PANV 130856Z AUTO 04010KT 10SM FEW120 M08/M10 A2926 RMK AO2 SLP004 T10831100 410671083 58004 FZRANO TSNO
PANV 130756Z AUTO 03011KT 10SM CLR M08/M10 A2927 RMK AO2 SLP009 T10831100 FZRANO TSNO
PANV 130656Z AUTO 04010KT 10SM CLR M08/M10 A2927 RMK AO2 SLP009 T10831100 FZRANO TSNO
PANV 130556Z AUTO 04011KT 10SM CLR M08/M09 A2927 RMK AO2 SLP009 T10781094 11067 21078 58005 FZRANO TSNO
PANV 130456Z AUTO 04010KT 10SM FEW120 M08/M09 A2928 RMK AO2 SLP010 T10781094 FZRANO TSNO
PANV 130356Z AUTO 03011KT 10SM CLR M07/M09 A2929 RMK AO2 SLP015 T10721094 FZRANO TSNO
PANV 130256Z AUTO 04012KT 10SM CLR M07/M09 A2929 RMK AO2 SLP013 T10721094 56007 FZRANO TSNO
PANV 130156Z AUTO 04012KT 10SM CLR M07/M09 A2929 RMK AO2 SLP014 T10721094 FZRANO TSNO